Lamona, Washington
Current Conditions -  °F | °C
As of 2:52 PM on Monday 24 Nov 2014 (Local Time) from KMWH Reporting Station
Overcast Overcast  
Wind Chill: 38°   Ceiling: 9000
Heat Index: 42°   Visibility: 10mi
Dew Point: 35°   Wind: 7mph
Humidity: 76%   Direction: 180°S
Pressure: 30.23"   Gusts: NA
Location:  47.36°N, 118.48°W
Report Text: KMWH 242252Z 18006KT 10SM OVC090 06/02 A3023 RMK AO2 SLP246 T00560017
Loading
Personal Weather Stations






























Interactive Weather Map New forecast layout! Learn more

10-Day Weather Forecast

Advertisements
Track Severe Weather on mobile